sensor_id;sensor_type;location;lat;lon;timestamp;P1;durP1;ratioP1;P2;durP2;ratioP2
64832;SDS011;51290;45.060;38.948;2023-02-28T00:00:33;7.28;;;2.92;;
64832;SDS011;51290;45.060;38.948;2023-02-28T00:03:00;5.25;;;3.13;;
64832;SDS011;51290;45.060;38.948;2023-02-28T00:05:26;5.13;;;3.28;;
64832;SDS011;51290;45.060;38.948;2023-02-28T00:07:53;6.90;;;3.10;;
64832;SDS011;51290;45.060;38.948;2023-02-28T00:10:21;5.65;;;3.70;;
64832;SDS011;51290;45.060;38.948;2023-02-28T00:12:49;6.03;;;3.25;;
64832;SDS011;51290;45.060;38.948;2023-02-28T00:15:16;7.53;;;3.33;;
64832;SDS011;51290;45.060;38.948;2023-02-28T00:17:43;7.25;;;3.15;;
64832;SDS011;51290;45.060;38.948;2023-02-28T00:20:10;7.95;;;3.10;;
64832;SDS011;51290;45.060;38.948;2023-02-28T00:22:48;4.43;;;2.97;;
64832;SDS011;51290;45.060;38.948;2023-02-28T00:25:17;6.13;;;3.67;;
64832;SDS011;51290;45.060;38.948;2023-02-28T00:27:45;10.45;;;3.75;;
64832;SDS011;51290;45.060;38.948;2023-02-28T00:30:12;6.38;;;3.60;;
64832;SDS011;51290;45.060;38.948;2023-02-28T00:32:43;5.68;;;2.92;;
64832;SDS011;51290;45.060;38.948;2023-02-28T00:35:10;5.57;;;3.25;;
64832;SDS011;51290;45.060;38.948;2023-02-28T00:37:36;7.45;;;3.90;;
64832;SDS011;51290;45.060;38.948;2023-02-28T00:40:05;8.88;;;3.40;;
64832;SDS011;51290;45.060;38.948;2023-02-28T00:42:33;8.70;;;3.90;;
64832;SDS011;51290;45.060;38.948;2023-02-28T00:44:59;8.68;;;4.53;;
64832;SDS011;51290;45.060;38.948;2023-02-28T00:47:25;9.93;;;4.10;;
64832;SDS011;51290;45.060;38.948;2023-02-28T00:49:51;10.68;;;3.83;;
64832;SDS011;51290;45.060;38.948;2023-02-28T00:52:17;8.65;;;3.83;;
64832;SDS011;51290;45.060;38.948;2023-02-28T00:54:43;6.68;;;3.38;;
64832;SDS011;51290;45.060;38.948;2023-02-28T00:57:09;5.47;;;3.45;;
64832;SDS011;51290;45.060;38.948;2023-02-28T00:59:35;7.20;;;4.32;;
64832;SDS011;51290;45.060;38.948;2023-02-28T01:02:01;11.68;;;4.15;;
64832;SDS011;51290;45.060;38.948;2023-02-28T01:26:32;6.50;;;3.67;;
64832;SDS011;51290;45.060;38.948;2023-02-28T01:28:58;5.88;;;3.33;;
64832;SDS011;51290;45.060;38.948;2023-02-28T01:31:24;6.03;;;3.05;;
64832;SDS011;51290;45.060;38.948;2023-02-28T01:33:50;4.93;;;3.03;;
64832;SDS011;51290;45.060;38.948;2023-02-28T01:36:18;6.28;;;4.00;;
64832;SDS011;51290;45.060;38.948;2023-02-28T01:38:46;6.03;;;3.38;;
64832;SDS011;51290;45.060;38.948;2023-02-28T01:41:15;5.35;;;3.35;;
64832;SDS011;51290;45.060;38.948;2023-02-28T01:46:11;12.98;;;4.65;;
64832;SDS011;51290;45.060;38.948;2023-02-28T01:48:40;6.95;;;4.13;;
64832;SDS011;51290;45.060;38.948;2023-02-28T01:51:24;6.05;;;3.85;;
64832;SDS011;51290;45.060;38.948;2023-02-28T01:54:00;5.93;;;3.28;;
64832;SDS011;51290;45.060;38.948;2023-02-28T01:56:30;5.60;;;3.30;;
64832;SDS011;51290;45.060;38.948;2023-02-28T01:58:59;8.40;;;3.42;;
64832;SDS011;51290;45.060;38.948;2023-02-28T02:01:25;7.35;;;3.67;;
64832;SDS011;51290;45.060;38.948;2023-02-28T02:03:55;7.03;;;4.18;;
64832;SDS011;51290;45.060;38.948;2023-02-28T02:06:27;5.65;;;3.60;;
64832;SDS011;51290;45.060;38.948;2023-02-28T02:08:59;4.95;;;3.35;;
64832;SDS011;51290;45.060;38.948;2023-02-28T02:11:25;7.13;;;4.45;;
64832;SDS011;51290;45.060;38.948;2023-02-28T02:15:00;6.38;;;3.95;;
64832;SDS011;51290;45.060;38.948;2023-02-28T02:25:32;6.75;;;3.40;;
64832;SDS011;51290;45.060;38.948;2023-02-28T02:30:58;5.55;;;3.25;;
64832;SDS011;51290;45.060;38.948;2023-02-28T02:39:48;6.78;;;3.70;;
64832;SDS011;51290;45.060;38.948;2023-02-28T02:42:00;8.93;;;4.38;;
64832;SDS011;51290;45.060;38.948;2023-02-28T02:45:03;5.65;;;3.10;;
64832;SDS011;51290;45.060;38.948;2023-02-28T02:47:46;8.50;;;4.00;;
64832;SDS011;51290;45.060;38.948;2023-02-28T02:50:21;4.53;;;2.90;;
64832;SDS011;51290;45.060;38.948;2023-02-28T02:52:52;7.60;;;4.40;;
64832;SDS011;51290;45.060;38.948;2023-02-28T02:55:22;17.90;;;4.28;;
64832;SDS011;51290;45.060;38.948;2023-02-28T02:57:51;9.65;;;3.65;;
64832;SDS011;51290;45.060;38.948;2023-02-28T03:00:23;8.52;;;3.78;;
64832;SDS011;51290;45.060;38.948;2023-02-28T03:02:55;7.82;;;3.65;;
64832;SDS011;51290;45.060;38.948;2023-02-28T03:05:44;10.23;;;3.72;;
64832;SDS011;51290;45.060;38.948;2023-02-28T03:08:11;8.35;;;4.30;;
64832;SDS011;51290;45.060;38.948;2023-02-28T03:10:45;6.25;;;3.63;;
64832;SDS011;51290;45.060;38.948;2023-02-28T03:16:14;4.43;;;2.63;;
64832;SDS011;51290;45.060;38.948;2023-02-28T03:26:58;10.35;;;3.50;;
64832;SDS011;51290;45.060;38.948;2023-02-28T03:29:35;8.10;;;3.60;;
64832;SDS011;51290;45.060;38.948;2023-02-28T03:32:08;6.65;;;4.07;;
64832;SDS011;51290;45.060;38.948;2023-02-28T03:35:04;6.38;;;3.00;;
64832;SDS011;51290;45.060;38.948;2023-02-28T03:37:35;5.45;;;3.67;;
64832;SDS011;51290;45.060;38.948;2023-02-28T03:40:08;11.48;;;3.97;;
64832;SDS011;51290;45.060;38.948;2023-02-28T03:42:56;5.05;;;3.53;;
64832;SDS011;51290;45.060;38.948;2023-02-28T03:45:30;7.30;;;3.63;;
64832;SDS011;51290;45.060;38.948;2023-02-28T03:48:02;10.93;;;4.40;;
64832;SDS011;51290;45.060;38.948;2023-02-28T03:50:35;8.07;;;3.72;;
64832;SDS011;51290;45.060;38.948;2023-02-28T03:55:45;6.18;;;3.40;;
64832;SDS011;51290;45.060;38.948;2023-02-28T04:00:57;9.38;;;4.35;;
64832;SDS011;51290;45.060;38.948;2023-02-28T04:03:34;5.18;;;3.40;;
64832;SDS011;51290;45.060;38.948;2023-02-28T04:06:01;7.25;;;4.30;;
64832;SDS011;51290;45.060;38.948;2023-02-28T04:08:28;11.63;;;3.85;;
64832;SDS011;51290;45.060;38.948;2023-02-28T04:11:29;3.92;;;2.80;;
64832;SDS011;51290;45.060;38.948;2023-02-28T04:13:47;8.68;;;3.75;;
64832;SDS011;51290;45.060;38.948;2023-02-28T04:16:13;5.03;;;3.15;;
64832;SDS011;51290;45.060;38.948;2023-02-28T04:18:39;6.32;;;3.42;;
64832;SDS011;51290;45.060;38.948;2023-02-28T04:21:06;11.02;;;3.67;;
64832;SDS011;51290;45.060;38.948;2023-02-28T04:23:32;9.05;;;3.00;;
64832;SDS011;51290;45.060;38.948;2023-02-28T04:25:58;5.68;;;3.40;;
64832;SDS011;51290;45.060;38.948;2023-02-28T04:28:25;4.35;;;3.10;;
64832;SDS011;51290;45.060;38.948;2023-02-28T04:30:59;10.35;;;4.00;;
64832;SDS011;51290;45.060;38.948;2023-02-28T04:33:27;5.40;;;3.90;;
64832;SDS011;51290;45.060;38.948;2023-02-28T04:36:06;6.57;;;3.97;;
64832;SDS011;51290;45.060;38.948;2023-02-28T04:38:34;5.47;;;3.35;;
64832;SDS011;51290;45.060;38.948;2023-02-28T04:41:02;6.05;;;3.35;;
64832;SDS011;51290;45.060;38.948;2023-02-28T04:43:29;6.47;;;4.13;;
64832;SDS011;51290;45.060;38.948;2023-02-28T04:45:56;6.05;;;2.88;;
64832;SDS011;51290;45.060;38.948;2023-02-28T04:48:23;9.88;;;3.72;;
64832;SDS011;51290;45.060;38.948;2023-02-28T04:50:50;7.43;;;3.10;;
64832;SDS011;51290;45.060;38.948;2023-02-28T04:53:17;11.20;;;3.97;;
64832;SDS011;51290;45.060;38.948;2023-02-28T04:55:43;6.57;;;3.83;;
64832;SDS011;51290;45.060;38.948;2023-02-28T04:58:10;10.27;;;3.83;;
64832;SDS011;51290;45.060;38.948;2023-02-28T05:00:36;9.82;;;3.83;;
64832;SDS011;51290;45.060;38.948;2023-02-28T05:03:02;5.57;;;2.95;;
64832;SDS011;51290;45.060;38.948;2023-02-28T05:05:28;8.32;;;3.42;;
64832;SDS011;51290;45.060;38.948;2023-02-28T05:07:54;10.00;;;2.90;;
64832;SDS011;51290;45.060;38.948;2023-02-28T05:10:21;8.07;;;4.22;;
64832;SDS011;51290;45.060;38.948;2023-02-28T05:12:47;5.85;;;3.83;;
64832;SDS011;51290;45.060;38.948;2023-02-28T05:15:14;7.05;;;3.88;;
64832;SDS011;51290;45.060;38.948;2023-02-28T05:17:41;5.32;;;3.13;;
64832;SDS011;51290;45.060;38.948;2023-02-28T05:20:07;9.85;;;3.85;;
64832;SDS011;51290;45.060;38.948;2023-02-28T05:22:36;13.98;;;4.63;;
64832;SDS011;51290;45.060;38.948;2023-02-28T05:25:03;11.73;;;3.97;;
64832;SDS011;51290;45.060;38.948;2023-02-28T05:27:30;7.30;;;4.25;;
64832;SDS011;51290;45.060;38.948;2023-02-28T05:29:57;6.40;;;3.95;;
64832;SDS011;51290;45.060;38.948;2023-02-28T05:32:22;6.22;;;3.67;;
64832;SDS011;51290;45.060;38.948;2023-02-28T05:34:50;7.35;;;3.40;;
64832;SDS011;51290;45.060;38.948;2023-02-28T05:37:16;8.10;;;4.25;;
64832;SDS011;51290;45.060;38.948;2023-02-28T05:39:42;7.15;;;3.90;;
64832;SDS011;51290;45.060;38.948;2023-02-28T05:42:08;9.98;;;4.65;;
64832;SDS011;51290;45.060;38.948;2023-02-28T05:44:35;7.25;;;4.53;;
64832;SDS011;51290;45.060;38.948;2023-02-28T05:47:01;6.60;;;3.70;;
64832;SDS011;51290;45.060;38.948;2023-02-28T05:49:27;11.98;;;3.60;;
64832;SDS011;51290;45.060;38.948;2023-02-28T05:51:53;13.23;;;4.18;;
64832;SDS011;51290;45.060;38.948;2023-02-28T05:54:19;15.35;;;4.63;;
64832;SDS011;51290;45.060;38.948;2023-02-28T05:56:45;6.65;;;4.15;;
64832;SDS011;51290;45.060;38.948;2023-02-28T05:59:12;7.07;;;3.83;;
64832;SDS011;51290;45.060;38.948;2023-02-28T06:01:42;6.00;;;3.90;;
64832;SDS011;51290;45.060;38.948;2023-02-28T06:04:17;5.35;;;3.40;;
64832;SDS011;51290;45.060;38.948;2023-02-28T06:06:44;7.35;;;4.00;;
64832;SDS011;51290;45.060;38.948;2023-02-28T06:09:11;9.80;;;4.45;;
64832;SDS011;51290;45.060;38.948;2023-02-28T06:11:37;9.35;;;4.68;;
64832;SDS011;51290;45.060;38.948;2023-02-28T06:14:04;8.98;;;4.50;;
64832;SDS011;51290;45.060;38.948;2023-02-28T06:16:30;7.43;;;4.22;;
64832;SDS011;51290;45.060;38.948;2023-02-28T06:18:58;7.03;;;4.43;;
64832;SDS011;51290;45.060;38.948;2023-02-28T06:21:25;8.60;;;4.57;;
64832;SDS011;51290;45.060;38.948;2023-02-28T06:23:52;7.95;;;4.43;;
64832;SDS011;51290;45.060;38.948;2023-02-28T06:26:19;10.48;;;4.60;;
64832;SDS011;51290;45.060;38.948;2023-02-28T06:28:46;6.88;;;3.97;;
64832;SDS011;51290;45.060;38.948;2023-02-28T06:31:13;7.05;;;3.47;;
64832;SDS011;51290;45.060;38.948;2023-02-28T06:33:40;7.72;;;4.10;;
64832;SDS011;51290;45.060;38.948;2023-02-28T06:36:08;12.40;;;5.22;;
64832;SDS011;51290;45.060;38.948;2023-02-28T06:38:35;7.10;;;3.92;;
64832;SDS011;51290;45.060;38.948;2023-02-28T06:41:02;8.10;;;4.10;;
64832;SDS011;51290;45.060;38.948;2023-02-28T06:43:30;8.35;;;4.32;;
64832;SDS011;51290;45.060;38.948;2023-02-28T06:45:59;10.15;;;4.85;;
64832;SDS011;51290;45.060;38.948;2023-02-28T06:48:26;7.82;;;4.30;;
64832;SDS011;51290;45.060;38.948;2023-02-28T06:51:03;6.22;;;3.63;;
64832;SDS011;51290;45.060;38.948;2023-02-28T06:53:33;7.20;;;4.38;;
64832;SDS011;51290;45.060;38.948;2023-02-28T06:56:04;6.55;;;3.35;;
64832;SDS011;51290;45.060;38.948;2023-02-28T06:58:34;5.22;;;3.53;;
64832;SDS011;51290;45.060;38.948;2023-02-28T07:01:00;8.18;;;4.30;;
64832;SDS011;51290;45.060;38.948;2023-02-28T07:03:27;8.32;;;4.50;;
64832;SDS011;51290;45.060;38.948;2023-02-28T07:05:53;8.05;;;3.92;;
64832;SDS011;51290;45.060;38.948;2023-02-28T07:08:28;14.80;;;4.47;;
64832;SDS011;51290;45.060;38.948;2023-02-28T07:10:54;8.30;;;5.00;;
64832;SDS011;51290;45.060;38.948;2023-02-28T07:13:21;6.45;;;3.55;;
64832;SDS011;51290;45.060;38.948;2023-02-28T07:15:54;6.82;;;3.97;;
64832;SDS011;51290;45.060;38.948;2023-02-28T07:18:22;5.53;;;3.70;;
64832;SDS011;51290;45.060;38.948;2023-02-28T07:20:49;6.85;;;3.50;;
64832;SDS011;51290;45.060;38.948;2023-02-28T07:23:15;6.95;;;3.95;;
64832;SDS011;51290;45.060;38.948;2023-02-28T07:25:41;9.13;;;3.95;;
64832;SDS011;51290;45.060;38.948;2023-02-28T07:28:07;7.80;;;4.32;;
64832;SDS011;51290;45.060;38.948;2023-02-28T07:30:33;8.60;;;3.67;;
64832;SDS011;51290;45.060;38.948;2023-02-28T07:32:59;7.45;;;3.80;;
64832;SDS011;51290;45.060;38.948;2023-02-28T07:35:26;5.68;;;3.40;;
64832;SDS011;51290;45.060;38.948;2023-02-28T07:37:52;5.95;;;3.60;;
64832;SDS011;51290;45.060;38.948;2023-02-28T07:40:18;7.93;;;4.13;;
64832;SDS011;51290;45.060;38.948;2023-02-28T07:42:44;5.15;;;3.20;;
64832;SDS011;51290;45.060;38.948;2023-02-28T07:45:15;7.10;;;3.70;;
64832;SDS011;51290;45.060;38.948;2023-02-28T07:47:41;7.13;;;3.78;;
64832;SDS011;51290;45.060;38.948;2023-02-28T07:50:08;6.65;;;4.20;;
64832;SDS011;51290;45.060;38.948;2023-02-28T07:52:37;10.75;;;3.85;;
64832;SDS011;51290;45.060;38.948;2023-02-28T07:55:04;4.95;;;3.22;;
64832;SDS011;51290;45.060;38.948;2023-02-28T07:57:31;7.82;;;3.83;;
64832;SDS011;51290;45.060;38.948;2023-02-28T07:59:57;6.32;;;3.85;;
64832;SDS011;51290;45.060;38.948;2023-02-28T08:02:23;7.40;;;4.80;;
64832;SDS011;51290;45.060;38.948;2023-02-28T08:04:50;9.02;;;4.70;;
64832;SDS011;51290;45.060;38.948;2023-02-28T08:07:16;8.20;;;4.68;;
64832;SDS011;51290;45.060;38.948;2023-02-28T08:09:44;12.20;;;5.03;;
64832;SDS011;51290;45.060;38.948;2023-02-28T08:12:10;7.25;;;3.85;;
64832;SDS011;51290;45.060;38.948;2023-02-28T08:14:37;7.05;;;3.70;;
64832;SDS011;51290;45.060;38.948;2023-02-28T08:17:03;8.45;;;4.80;;
64832;SDS011;51290;45.060;38.948;2023-02-28T08:19:30;9.85;;;4.47;;
64832;SDS011;51290;45.060;38.948;2023-02-28T08:21:56;8.45;;;4.03;;
64832;SDS011;51290;45.060;38.948;2023-02-28T08:24:22;9.48;;;3.80;;
64832;SDS011;51290;45.060;38.948;2023-02-28T08:26:49;14.48;;;5.28;;
64832;SDS011;51290;45.060;38.948;2023-02-28T08:29:15;7.25;;;3.95;;
64832;SDS011;51290;45.060;38.948;2023-02-28T08:31:41;7.20;;;4.53;;
64832;SDS011;51290;45.060;38.948;2023-02-28T08:34:12;8.73;;;4.95;;
64832;SDS011;51290;45.060;38.948;2023-02-28T08:36:39;8.98;;;4.07;;
64832;SDS011;51290;45.060;38.948;2023-02-28T08:39:06;13.95;;;5.25;;
64832;SDS011;51290;45.060;38.948;2023-02-28T08:41:32;6.85;;;4.53;;
64832;SDS011;51290;45.060;38.948;2023-02-28T08:43:58;8.00;;;4.57;;
64832;SDS011;51290;45.060;38.948;2023-02-28T08:46:25;9.27;;;4.55;;
64832;SDS011;51290;45.060;38.948;2023-02-28T08:48:52;10.57;;;5.20;;
64832;SDS011;51290;45.060;38.948;2023-02-28T08:51:19;9.93;;;4.95;;
64832;SDS011;51290;45.060;38.948;2023-02-28T08:53:55;13.40;;;5.53;;
64832;SDS011;51290;45.060;38.948;2023-02-28T08:56:23;7.93;;;4.28;;
64832;SDS011;51290;45.060;38.948;2023-02-28T08:58:53;18.45;;;5.78;;
64832;SDS011;51290;45.060;38.948;2023-02-28T09:01:22;13.82;;;5.53;;
64832;SDS011;51290;45.060;38.948;2023-02-28T09:03:53;10.77;;;5.60;;
64832;SDS011;51290;45.060;38.948;2023-02-28T09:06:20;10.93;;;6.10;;
64832;SDS011;51290;45.060;38.948;2023-02-28T09:08:47;12.00;;;5.55;;
64832;SDS011;51290;45.060;38.948;2023-02-28T09:11:15;11.40;;;5.55;;
64832;SDS011;51290;45.060;38.948;2023-02-28T09:13:41;11.18;;;5.80;;
64832;SDS011;51290;45.060;38.948;2023-02-28T09:16:08;11.48;;;5.90;;
64832;SDS011;51290;45.060;38.948;2023-02-28T09:18:36;11.82;;;5.45;;
64832;SDS011;51290;45.060;38.948;2023-02-28T09:21:06;9.55;;;5.20;;
64832;SDS011;51290;45.060;38.948;2023-02-28T09:23:33;11.30;;;5.80;;
64832;SDS011;51290;45.060;38.948;2023-02-28T09:26:00;12.88;;;6.50;;
64832;SDS011;51290;45.060;38.948;2023-02-28T09:28:26;11.48;;;6.53;;
64832;SDS011;51290;45.060;38.948;2023-02-28T09:30:53;9.05;;;5.28;;
64832;SDS011;51290;45.060;38.948;2023-02-28T09:33:20;9.88;;;5.20;;
64832;SDS011;51290;45.060;38.948;2023-02-28T09:35:50;10.40;;;4.97;;
64832;SDS011;51290;45.060;38.948;2023-02-28T09:38:16;10.52;;;5.63;;
64832;SDS011;51290;45.060;38.948;2023-02-28T09:40:56;9.35;;;5.13;;
64832;SDS011;51290;45.060;38.948;2023-02-28T09:43:26;10.90;;;5.63;;
64832;SDS011;51290;45.060;38.948;2023-02-28T09:46:05;11.23;;;5.88;;
64832;SDS011;51290;45.060;38.948;2023-02-28T09:48:51;13.57;;;5.22;;
64832;SDS011;51290;45.060;38.948;2023-02-28T09:53:49;11.80;;;6.32;;
64832;SDS011;51290;45.060;38.948;2023-02-28T09:56:19;11.82;;;5.68;;
64832;SDS011;51290;45.060;38.948;2023-02-28T09:58:54;10.00;;;5.53;;
64832;SDS011;51290;45.060;38.948;2023-02-28T10:04:33;15.15;;;5.97;;
64832;SDS011;51290;45.060;38.948;2023-02-28T10:07:06;13.00;;;5.93;;
64832;SDS011;51290;45.060;38.948;2023-02-28T10:09:53;13.52;;;5.97;;
64832;SDS011;51290;45.060;38.948;2023-02-28T10:12:23;10.93;;;5.93;;
64832;SDS011;51290;45.060;38.948;2023-02-28T10:14:51;11.50;;;6.13;;
64832;SDS011;51290;45.060;38.948;2023-02-28T10:17:21;10.27;;;6.10;;
64832;SDS011;51290;45.060;38.948;2023-02-28T10:19:55;13.02;;;6.93;;
64832;SDS011;51290;45.060;38.948;2023-02-28T10:24:53;14.43;;;7.32;;
64832;SDS011;51290;45.060;38.948;2023-02-28T10:27:23;14.13;;;6.25;;
64832;SDS011;51290;45.060;38.948;2023-02-28T10:29:55;10.60;;;6.68;;
64832;SDS011;51290;45.060;38.948;2023-02-28T10:32:33;16.15;;;6.35;;
64832;SDS011;51290;45.060;38.948;2023-02-28T10:37:50;12.45;;;6.45;;
64832;SDS011;51290;45.060;38.948;2023-02-28T10:45:29;13.68;;;6.47;;
64832;SDS011;51290;45.060;38.948;2023-02-28T10:48:04;15.65;;;8.30;;
64832;SDS011;51290;45.060;38.948;2023-02-28T10:55:35;12.38;;;7.13;;
64832;SDS011;51290;45.060;38.948;2023-02-28T10:58:02;11.82;;;6.45;;
64832;SDS011;51290;45.060;38.948;2023-02-28T11:00:33;11.55;;;6.60;;
64832;SDS011;51290;45.060;38.948;2023-02-28T11:03:00;12.15;;;6.28;;
64832;SDS011;51290;45.060;38.948;2023-02-28T11:05:30;11.13;;;6.45;;
64832;SDS011;51290;45.060;38.948;2023-02-28T11:08:06;11.20;;;6.75;;
64832;SDS011;51290;45.060;38.948;2023-02-28T11:10:39;13.20;;;7.45;;
64832;SDS011;51290;45.060;38.948;2023-02-28T11:13:16;12.38;;;7.18;;
64832;SDS011;51290;45.060;38.948;2023-02-28T11:15:48;14.43;;;5.85;;
64832;SDS011;51290;45.060;38.948;2023-02-28T11:20:58;22.25;;;9.07;;
64832;SDS011;51290;45.060;38.948;2023-02-28T11:23:27;17.63;;;7.68;;
64832;SDS011;51290;45.060;38.948;2023-02-28T11:25:57;14.95;;;7.25;;
64832;SDS011;51290;45.060;38.948;2023-02-28T11:28:27;12.70;;;6.45;;
64832;SDS011;51290;45.060;38.948;2023-02-28T11:36:23;13.73;;;6.82;;
64832;SDS011;51290;45.060;38.948;2023-02-28T11:38:52;13.77;;;7.22;;
64832;SDS011;51290;45.060;38.948;2023-02-28T11:41:28;9.50;;;5.63;;
64832;SDS011;51290;45.060;38.948;2023-02-28T11:44:11;10.32;;;5.97;;
64832;SDS011;51290;45.060;38.948;2023-02-28T11:46:44;12.43;;;7.18;;
64832;SDS011;51290;45.060;38.948;2023-02-28T11:59:52;12.88;;;6.60;;
64832;SDS011;51290;45.060;38.948;2023-02-28T12:05:44;10.13;;;5.95;;
64832;SDS011;51290;45.060;38.948;2023-02-28T12:08:17;11.88;;;6.07;;
64832;SDS011;51290;45.060;38.948;2023-02-28T12:22:30;16.23;;;6.07;;
64832;SDS011;51290;45.060;38.948;2023-02-28T12:27:33;13.65;;;6.38;;
64832;SDS011;51290;45.060;38.948;2023-02-28T12:30:04;14.90;;;7.28;;
64832;SDS011;51290;45.060;38.948;2023-02-28T12:35:52;12.32;;;5.85;;
64832;SDS011;51290;45.060;38.948;2023-02-28T12:38:34;16.33;;;7.32;;
64832;SDS011;51290;45.060;38.948;2023-02-28T12:41:09;10.90;;;5.55;;
64832;SDS011;51290;45.060;38.948;2023-02-28T12:43:51;7.93;;;5.18;;
64832;SDS011;51290;45.060;38.948;2023-02-28T12:46:34;10.52;;;5.70;;
64832;SDS011;51290;45.060;38.948;2023-02-28T12:49:15;17.25;;;5.90;;
64832;SDS011;51290;45.060;38.948;2023-02-28T12:51:46;15.52;;;6.60;;
64832;SDS011;51290;45.060;38.948;2023-02-28T12:59:27;12.73;;;6.40;;
64832;SDS011;51290;45.060;38.948;2023-02-28T13:02:20;10.35;;;5.88;;
64832;SDS011;51290;45.060;38.948;2023-02-28T13:16:50;13.70;;;6.47;;
64832;SDS011;51290;45.060;38.948;2023-02-28T13:19:44;10.93;;;5.53;;
64832;SDS011;51290;45.060;38.948;2023-02-28T13:22:35;13.88;;;6.90;;
64832;SDS011;51290;45.060;38.948;2023-02-28T13:25:53;14.95;;;6.50;;
64832;SDS011;51290;45.060;38.948;2023-02-28T13:28:03;15.18;;;6.78;;
64832;SDS011;51290;45.060;38.948;2023-02-28T13:33:25;13.13;;;6.97;;
64832;SDS011;51290;45.060;38.948;2023-02-28T13:36:01;19.60;;;8.13;;
64832;SDS011;51290;45.060;38.948;2023-02-28T13:49:25;17.92;;;7.00;;
64832;SDS011;51290;45.060;38.948;2023-02-28T14:03:12;18.13;;;8.27;;
64832;SDS011;51290;45.060;38.948;2023-02-28T14:11:46;14.70;;;7.22;;
64832;SDS011;51290;45.060;38.948;2023-02-28T14:17:00;14.80;;;8.15;;
64832;SDS011;51290;45.060;38.948;2023-02-28T14:19:31;18.13;;;8.30;;
64832;SDS011;51290;45.060;38.948;2023-02-28T14:27:39;12.18;;;6.55;;
64832;SDS011;51290;45.060;38.948;2023-02-28T14:37:51;16.50;;;8.20;;
64832;SDS011;51290;45.060;38.948;2023-02-28T14:42:57;14.27;;;7.40;;
64832;SDS011;51290;45.060;38.948;2023-02-28T14:45:25;14.60;;;7.25;;
64832;SDS011;51290;45.060;38.948;2023-02-28T14:47:55;17.00;;;7.78;;
64832;SDS011;51290;45.060;38.948;2023-02-28T14:50:25;17.45;;;8.98;;
64832;SDS011;51290;45.060;38.948;2023-02-28T14:52:59;17.10;;;8.73;;
64832;SDS011;51290;45.060;38.948;2023-02-28T14:55:31;12.70;;;7.68;;
64832;SDS011;51290;45.060;38.948;2023-02-28T14:58:00;16.90;;;8.35;;
64832;SDS011;51290;45.060;38.948;2023-02-28T15:00:33;16.25;;;8.80;;
64832;SDS011;51290;45.060;38.948;2023-02-28T15:03:22;15.63;;;7.88;;
64832;SDS011;51290;45.060;38.948;2023-02-28T15:06:05;17.77;;;7.45;;
64832;SDS011;51290;45.060;38.948;2023-02-28T15:08:39;13.00;;;6.93;;
64832;SDS011;51290;45.060;38.948;2023-02-28T15:11:06;15.48;;;7.30;;
64832;SDS011;51290;45.060;38.948;2023-02-28T15:13:45;12.52;;;7.00;;
64832;SDS011;51290;45.060;38.948;2023-02-28T15:18:59;12.80;;;7.28;;
64832;SDS011;51290;45.060;38.948;2023-02-28T15:21:29;14.18;;;6.00;;
64832;SDS011;51290;45.060;38.948;2023-02-28T15:23:59;13.63;;;6.35;;
64832;SDS011;51290;45.060;38.948;2023-02-28T15:26:29;10.88;;;6.85;;
64832;SDS011;51290;45.060;38.948;2023-02-28T15:29:00;14.13;;;5.38;;
64832;SDS011;51290;45.060;38.948;2023-02-28T15:31:34;14.65;;;5.78;;
64832;SDS011;51290;45.060;38.948;2023-02-28T15:34:06;14.43;;;7.53;;
64832;SDS011;51290;45.060;38.948;2023-02-28T15:36:41;13.07;;;6.55;;
64832;SDS011;51290;45.060;38.948;2023-02-28T15:39:21;10.55;;;5.68;;
64832;SDS011;51290;45.060;38.948;2023-02-28T15:42:09;11.80;;;6.00;;
64832;SDS011;51290;45.060;38.948;2023-02-28T15:44:43;17.17;;;7.53;;
64832;SDS011;51290;45.060;38.948;2023-02-28T15:47:28;12.25;;;6.30;;
64832;SDS011;51290;45.060;38.948;2023-02-28T15:52:29;14.82;;;7.60;;
64832;SDS011;51290;45.060;38.948;2023-02-28T15:55:09;21.58;;;7.85;;
64832;SDS011;51290;45.060;38.948;2023-02-28T15:57:41;17.00;;;8.25;;
64832;SDS011;51290;45.060;38.948;2023-02-28T16:00:10;11.75;;;6.38;;
64832;SDS011;51290;45.060;38.948;2023-02-28T16:02:40;11.50;;;5.03;;
64832;SDS011;51290;45.060;38.948;2023-02-28T16:07:39;9.02;;;5.05;;
64832;SDS011;51290;45.060;38.948;2023-02-28T16:10:10;17.23;;;6.90;;
64832;SDS011;51290;45.060;38.948;2023-02-28T16:12:38;18.08;;;5.82;;
64832;SDS011;51290;45.060;38.948;2023-02-28T16:15:46;12.15;;;5.93;;
64832;SDS011;51290;45.060;38.948;2023-02-28T16:17:56;13.95;;;5.07;;
64832;SDS011;51290;45.060;38.948;2023-02-28T16:20:24;9.80;;;5.47;;
64832;SDS011;51290;45.060;38.948;2023-02-28T16:22:53;8.32;;;4.85;;
64832;SDS011;51290;45.060;38.948;2023-02-28T16:25:21;9.23;;;5.60;;
64832;SDS011;51290;45.060;38.948;2023-02-28T16:27:51;10.70;;;5.78;;
64832;SDS011;51290;45.060;38.948;2023-02-28T16:30:26;10.38;;;5.63;;
64832;SDS011;51290;45.060;38.948;2023-02-28T16:32:56;15.02;;;5.68;;
64832;SDS011;51290;45.060;38.948;2023-02-28T16:35:32;15.25;;;6.88;;
64832;SDS011;51290;45.060;38.948;2023-02-28T16:37:58;11.77;;;6.20;;
64832;SDS011;51290;45.060;38.948;2023-02-28T16:40:25;14.70;;;6.75;;
64832;SDS011;51290;45.060;38.948;2023-02-28T16:42:54;11.35;;;5.88;;
64832;SDS011;51290;45.060;38.948;2023-02-28T16:45:24;14.07;;;6.95;;
64832;SDS011;51290;45.060;38.948;2023-02-28T16:47:52;21.42;;;8.43;;
64832;SDS011;51290;45.060;38.948;2023-02-28T16:52:46;13.88;;;7.18;;
64832;SDS011;51290;45.060;38.948;2023-02-28T16:55:13;13.40;;;5.45;;
64832;SDS011;51290;45.060;38.948;2023-02-28T16:57:39;18.48;;;6.22;;
64832;SDS011;51290;45.060;38.948;2023-02-28T17:00:06;22.40;;;8.27;;
64832;SDS011;51290;45.060;38.948;2023-02-28T17:02:33;12.93;;;6.43;;
64832;SDS011;51290;45.060;38.948;2023-02-28T17:05:00;9.50;;;5.05;;
64832;SDS011;51290;45.060;38.948;2023-02-28T17:07:26;10.18;;;5.18;;
64832;SDS011;51290;45.060;38.948;2023-02-28T17:09:52;16.33;;;5.00;;
64832;SDS011;51290;45.060;38.948;2023-02-28T17:12:18;11.32;;;4.22;;
64832;SDS011;51290;45.060;38.948;2023-02-28T17:14:44;15.60;;;5.60;;
64832;SDS011;51290;45.060;38.948;2023-02-28T17:17:28;8.82;;;5.38;;
64832;SDS011;51290;45.060;38.948;2023-02-28T17:19:55;8.77;;;3.53;;
64832;SDS011;51290;45.060;38.948;2023-02-28T17:22:21;5.75;;;4.32;;
64832;SDS011;51290;45.060;38.948;2023-02-28T17:24:47;11.45;;;4.72;;
64832;SDS011;51290;45.060;38.948;2023-02-28T17:27:13;9.40;;;4.60;;
64832;SDS011;51290;45.060;38.948;2023-02-28T17:29:39;8.75;;;4.43;;
64832;SDS011;51290;45.060;38.948;2023-02-28T17:32:05;4.65;;;3.53;;
64832;SDS011;51290;45.060;38.948;2023-02-28T17:34:31;8.88;;;3.90;;
64832;SDS011;51290;45.060;38.948;2023-02-28T17:36:57;8.63;;;4.32;;
64832;SDS011;51290;45.060;38.948;2023-02-28T17:39:23;8.68;;;3.90;;
64832;SDS011;51290;45.060;38.948;2023-02-28T17:41:55;6.53;;;4.18;;
64832;SDS011;51290;45.060;38.948;2023-02-28T17:44:22;8.90;;;4.28;;
64832;SDS011;51290;45.060;38.948;2023-02-28T17:46:49;6.80;;;4.53;;
64832;SDS011;51290;45.060;38.948;2023-02-28T17:49:17;11.07;;;4.70;;
64832;SDS011;51290;45.060;38.948;2023-02-28T17:51:43;8.18;;;4.15;;
64832;SDS011;51290;45.060;38.948;2023-02-28T17:54:10;9.23;;;3.90;;
64832;SDS011;51290;45.060;38.948;2023-02-28T17:56:36;7.20;;;3.78;;
64832;SDS011;51290;45.060;38.948;2023-02-28T17:59:02;7.82;;;3.35;;
64832;SDS011;51290;45.060;38.948;2023-02-28T18:01:29;7.38;;;4.47;;